sensor_id;sensor_type;location;lat;lon;timestamp;temperature;humidity
1329;DHT22;658;48.820;9.354;2023-04-25T00:01:18;23.10;43.30
1329;DHT22;658;48.820;9.354;2023-04-25T00:05:19;23.10;43.30
1329;DHT22;658;48.820;9.354;2023-04-25T00:09:20;23.10;43.30
1329;DHT22;658;48.820;9.354;2023-04-25T00:13:22;23.00;43.20
1329;DHT22;658;48.820;9.354;2023-04-25T00:17:23;23.00;43.10
1329;DHT22;658;48.820;9.354;2023-04-25T00:21:27;23.00;43.20
1329;DHT22;658;48.820;9.354;2023-04-25T00:25:28;23.00;43.20
1329;DHT22;658;48.820;9.354;2023-04-25T00:29:29;23.00;43.20
1329;DHT22;658;48.820;9.354;2023-04-25T00:33:29;23.00;43.20
1329;DHT22;658;48.820;9.354;2023-04-25T00:37:30;23.00;43.20
1329;DHT22;658;48.820;9.354;2023-04-25T00:41:30;22.90;43.10
1329;DHT22;658;48.820;9.354;2023-04-25T00:45:31;22.90;43.10
1329;DHT22;658;48.820;9.354;2023-04-25T00:49:32;22.90;43.10
1329;DHT22;658;48.820;9.354;2023-04-25T00:53:33;22.90;43.10
1329;DHT22;658;48.820;9.354;2023-04-25T00:57:38;22.90;43.10
1329;DHT22;658;48.820;9.354;2023-04-25T01:01:39;22.90;43.10
1329;DHT22;658;48.820;9.354;2023-04-25T01:05:41;22.90;43.10
1329;DHT22;658;48.820;9.354;2023-04-25T01:09:45;22.90;43.10
1329;DHT22;658;48.820;9.354;2023-04-25T01:13:51;22.90;43.20
1329;DHT22;658;48.820;9.354;2023-04-25T01:17:51;22.90;43.10
1329;DHT22;658;48.820;9.354;2023-04-25T01:21:55;22.80;43.10
1329;DHT22;658;48.820;9.354;2023-04-25T01:25:58;22.80;43.10
1329;DHT22;658;48.820;9.354;2023-04-25T01:30:03;22.80;43.10
1329;DHT22;658;48.820;9.354;2023-04-25T01:34:04;22.80;43.10
1329;DHT22;658;48.820;9.354;2023-04-25T01:38:04;22.80;43.10
1329;DHT22;658;48.820;9.354;2023-04-25T01:42:05;22.80;43.10
1329;DHT22;658;48.820;9.354;2023-04-25T01:46:06;22.80;43.10
1329;DHT22;658;48.820;9.354;2023-04-25T01:50:07;22.80;43.10
1329;DHT22;658;48.820;9.354;2023-04-25T01:54:10;22.80;43.10
1329;DHT22;658;48.820;9.354;2023-04-25T01:58:11;22.70;43.10
1329;DHT22;658;48.820;9.354;2023-04-25T02:02:13;22.70;43.00
1329;DHT22;658;48.820;9.354;2023-04-25T02:06:13;22.80;43.10
1329;DHT22;658;48.820;9.354;2023-04-25T02:10:14;22.70;43.10
1329;DHT22;658;48.820;9.354;2023-04-25T02:14:15;22.70;43.00
1329;DHT22;658;48.820;9.354;2023-04-25T02:18:16;22.70;43.10
1329;DHT22;658;48.820;9.354;2023-04-25T02:22:16;22.70;43.10
1329;DHT22;658;48.820;9.354;2023-04-25T02:26:17;22.70;43.10
1329;DHT22;658;48.820;9.354;2023-04-25T02:30:20;22.70;43.10
1329;DHT22;658;48.820;9.354;2023-04-25T02:34:21;22.60;43.10
1329;DHT22;658;48.820;9.354;2023-04-25T02:38:21;22.60;43.10
1329;DHT22;658;48.820;9.354;2023-04-25T02:42:22;22.60;43.10
1329;DHT22;658;48.820;9.354;2023-04-25T02:46:22;22.60;43.10
1329;DHT22;658;48.820;9.354;2023-04-25T02:50:23;22.60;43.10
1329;DHT22;658;48.820;9.354;2023-04-25T02:54:26;22.60;43.10
1329;DHT22;658;48.820;9.354;2023-04-25T02:58:26;22.60;43.10
1329;DHT22;658;48.820;9.354;2023-04-25T03:02:27;22.60;43.10
1329;DHT22;658;48.820;9.354;2023-04-25T03:06:27;22.60;43.10
1329;DHT22;658;48.820;9.354;2023-04-25T03:10:28;22.60;43.10
1329;DHT22;658;48.820;9.354;2023-04-25T03:14:29;22.60;43.20
1329;DHT22;658;48.820;9.354;2023-04-25T03:18:29;22.50;43.10
1329;DHT22;658;48.820;9.354;2023-04-25T03:22:30;22.50;43.10
1329;DHT22;658;48.820;9.354;2023-04-25T03:26:30;22.50;43.00
1329;DHT22;658;48.820;9.354;2023-04-25T03:30:31;22.50;43.10
1329;DHT22;658;48.820;9.354;2023-04-25T03:34:32;22.50;43.00
1329;DHT22;658;48.820;9.354;2023-04-25T03:38:32;22.50;43.10
1329;DHT22;658;48.820;9.354;2023-04-25T03:42:33;22.50;43.10
1329;DHT22;658;48.820;9.354;2023-04-25T03:46:33;22.50;43.10
1329;DHT22;658;48.820;9.354;2023-04-25T03:50:37;22.50;43.00
1329;DHT22;658;48.820;9.354;2023-04-25T03:54:40;22.50;43.10
1329;DHT22;658;48.820;9.354;2023-04-25T03:58:43;22.40;43.10
1329;DHT22;658;48.820;9.354;2023-04-25T04:02:43;22.40;43.10
1329;DHT22;658;48.820;9.354;2023-04-25T04:06:48;22.40;43.10
1329;DHT22;658;48.820;9.354;2023-04-25T04:10:51;22.40;43.10
1329;DHT22;658;48.820;9.354;2023-04-25T04:14:52;22.40;43.10
1329;DHT22;658;48.820;9.354;2023-04-25T04:18:52;22.40;43.10
1329;DHT22;658;48.820;9.354;2023-04-25T04:22:53;22.40;43.20
1329;DHT22;658;48.820;9.354;2023-04-25T04:26:53;22.40;43.20
1329;DHT22;658;48.820;9.354;2023-04-25T04:30:54;22.40;43.20
1329;DHT22;658;48.820;9.354;2023-04-25T04:34:55;22.40;43.20
1329;DHT22;658;48.820;9.354;2023-04-25T04:38:56;22.40;43.10
1329;DHT22;658;48.820;9.354;2023-04-25T04:42:58;22.30;43.10
1329;DHT22;658;48.820;9.354;2023-04-25T04:46:59;22.40;43.50
1329;DHT22;658;48.820;9.354;2023-04-25T04:51:00;22.40;43.30
1329;DHT22;658;48.820;9.354;2023-04-25T04:55:01;22.40;43.30
1329;DHT22;658;48.820;9.354;2023-04-25T04:59:01;22.50;43.40
1329;DHT22;658;48.820;9.354;2023-04-25T05:03:02;22.50;43.40
1329;DHT22;658;48.820;9.354;2023-04-25T05:07:03;22.50;43.40
1329;DHT22;658;48.820;9.354;2023-04-25T05:11:04;22.60;43.50
1329;DHT22;658;48.820;9.354;2023-04-25T05:15:05;22.60;43.40
1329;DHT22;658;48.820;9.354;2023-04-25T05:19:05;22.60;43.40
1329;DHT22;658;48.820;9.354;2023-04-25T05:23:06;22.60;43.50
1329;DHT22;658;48.820;9.354;2023-04-25T05:27:07;22.60;43.80
1329;DHT22;658;48.820;9.354;2023-04-25T05:31:10;22.50;44.20
1329;DHT22;658;48.820;9.354;2023-04-25T05:35:10;22.60;43.70
1329;DHT22;658;48.820;9.354;2023-04-25T05:39:11;22.60;43.50
1329;DHT22;658;48.820;9.354;2023-04-25T05:43:12;22.60;43.40
1329;DHT22;658;48.820;9.354;2023-04-25T05:47:13;22.70;43.40
1329;DHT22;658;48.820;9.354;2023-04-25T05:51:15;22.70;43.30
1329;DHT22;658;48.820;9.354;2023-04-25T05:55:16;22.70;43.20
1329;DHT22;658;48.820;9.354;2023-04-25T05:59:17;22.70;43.20
1329;DHT22;658;48.820;9.354;2023-04-25T06:03:17;22.70;43.10
1329;DHT22;658;48.820;9.354;2023-04-25T06:07:19;22.70;43.30
1329;DHT22;658;48.820;9.354;2023-04-25T06:11:22;22.80;43.30
1329;DHT22;658;48.820;9.354;2023-04-25T06:15:23;22.80;43.30
1329;DHT22;658;48.820;9.354;2023-04-25T06:19:23;22.80;43.30
1329;DHT22;658;48.820;9.354;2023-04-25T06:23:24;22.80;43.50
1329;DHT22;658;48.820;9.354;2023-04-25T06:27:25;22.80;43.30
1329;DHT22;658;48.820;9.354;2023-04-25T06:31:26;22.80;43.40
1329;DHT22;658;48.820;9.354;2023-04-25T06:35:26;22.90;43.90
1329;DHT22;658;48.820;9.354;2023-04-25T06:39:27;22.90;43.50
1329;DHT22;658;48.820;9.354;2023-04-25T06:43:27;22.90;43.30
1329;DHT22;658;48.820;9.354;2023-04-25T06:47:33;23.00;43.40
1329;DHT22;658;48.820;9.354;2023-04-25T06:51:33;23.00;43.40
1329;DHT22;658;48.820;9.354;2023-04-25T06:55:34;23.00;43.20
1329;DHT22;658;48.820;9.354;2023-04-25T06:59:35;23.10;43.20
1329;DHT22;658;48.820;9.354;2023-04-25T07:03:35;23.10;43.20
1329;DHT22;658;48.820;9.354;2023-04-25T07:07:37;23.20;43.20
1329;DHT22;658;48.820;9.354;2023-04-25T07:11:38;23.20;43.00
1329;DHT22;658;48.820;9.354;2023-04-25T07:15:38;23.20;43.10
1329;DHT22;658;48.820;9.354;2023-04-25T07:19:41;23.20;43.00
1329;DHT22;658;48.820;9.354;2023-04-25T07:23:42;23.30;43.10
1329;DHT22;658;48.820;9.354;2023-04-25T07:27:42;23.20;43.10
1329;DHT22;658;48.820;9.354;2023-04-25T07:31:43;23.20;43.00
1329;DHT22;658;48.820;9.354;2023-04-25T07:35:43;23.30;43.10
1329;DHT22;658;48.820;9.354;2023-04-25T07:39:47;23.30;43.10
1329;DHT22;658;48.820;9.354;2023-04-25T07:43:47;23.20;43.00
1329;DHT22;658;48.820;9.354;2023-04-25T07:47:48;23.30;43.10
1329;DHT22;658;48.820;9.354;2023-04-25T07:51:51;23.30;43.00
1329;DHT22;658;48.820;9.354;2023-04-25T07:55:52;23.20;43.00
1329;DHT22;658;48.820;9.354;2023-04-25T07:59:55;23.30;43.00
1329;DHT22;658;48.820;9.354;2023-04-25T08:03:56;23.30;43.00
1329;DHT22;658;48.820;9.354;2023-04-25T08:07:56;23.20;43.00
1329;DHT22;658;48.820;9.354;2023-04-25T08:11:57;23.30;43.20
1329;DHT22;658;48.820;9.354;2023-04-25T08:15:57;23.30;43.20
1329;DHT22;658;48.820;9.354;2023-04-25T08:19:58;23.30;43.20
1329;DHT22;658;48.820;9.354;2023-04-25T08:23:58;23.30;43.20
1329;DHT22;658;48.820;9.354;2023-04-25T08:27:59;23.30;43.20
1329;DHT22;658;48.820;9.354;2023-04-25T08:32:03;23.30;43.20
1329;DHT22;658;48.820;9.354;2023-04-25T08:36:03;23.30;43.10
1329;DHT22;658;48.820;9.354;2023-04-25T08:40:14;23.30;43.10
1329;DHT22;658;48.820;9.354;2023-04-25T08:44:16;23.30;43.20
1329;DHT22;658;48.820;9.354;2023-04-25T08:48:17;23.30;43.30
1329;DHT22;658;48.820;9.354;2023-04-25T08:52:22;23.30;43.30
1329;DHT22;658;48.820;9.354;2023-04-25T08:56:24;23.30;43.30
1329;DHT22;658;48.820;9.354;2023-04-25T09:00:27;23.30;43.30
1329;DHT22;658;48.820;9.354;2023-04-25T09:04:30;23.30;43.30
1329;DHT22;658;48.820;9.354;2023-04-25T09:08:31;23.30;43.40
1329;DHT22;658;48.820;9.354;2023-04-25T09:12:34;23.30;43.40
1329;DHT22;658;48.820;9.354;2023-04-25T09:16:35;23.30;43.40
1329;DHT22;658;48.820;9.354;2023-04-25T09:20:41;23.30;43.40
1329;DHT22;658;48.820;9.354;2023-04-25T09:24:44;23.30;43.50
1329;DHT22;658;48.820;9.354;2023-04-25T09:28:46;23.30;43.50
1329;DHT22;658;48.820;9.354;2023-04-25T09:32:48;23.30;43.50
1329;DHT22;658;48.820;9.354;2023-04-25T09:36:48;23.30;43.40
1329;DHT22;658;48.820;9.354;2023-04-25T09:40:49;23.20;43.30
1329;DHT22;658;48.820;9.354;2023-04-25T09:44:56;23.20;43.30
1329;DHT22;658;48.820;9.354;2023-04-25T09:48:58;23.20;43.30
1329;DHT22;658;48.820;9.354;2023-04-25T09:53:03;23.20;43.30
1329;DHT22;658;48.820;9.354;2023-04-25T09:57:21;23.20;43.50
1329;DHT22;658;48.820;9.354;2023-04-25T10:01:23;23.20;43.40
1329;DHT22;658;48.820;9.354;2023-04-25T10:05:24;23.20;43.50
1329;DHT22;658;48.820;9.354;2023-04-25T10:09:26;23.20;43.50
1329;DHT22;658;48.820;9.354;2023-04-25T10:13:36;23.20;43.50
1329;DHT22;658;48.820;9.354;2023-04-25T10:17:36;23.20;43.60
1329;DHT22;658;48.820;9.354;2023-04-25T10:21:54;23.20;43.60
1329;DHT22;658;48.820;9.354;2023-04-25T10:25:56;23.20;43.60
1329;DHT22;658;48.820;9.354;2023-04-25T10:30:04;23.20;43.60
1329;DHT22;658;48.820;9.354;2023-04-25T10:34:09;23.20;43.60
1329;DHT22;658;48.820;9.354;2023-04-25T10:38:10;23.20;43.70
1329;DHT22;658;48.820;9.354;2023-04-25T10:42:12;23.10;43.60
1329;DHT22;658;48.820;9.354;2023-04-25T10:50:17;23.10;43.70
1329;DHT22;658;48.820;9.354;2023-04-25T10:54:18;23.00;43.60
1329;DHT22;658;48.820;9.354;2023-04-25T10:58:22;23.00;43.70
1329;DHT22;658;48.820;9.354;2023-04-25T11:02:26;23.00;43.70
1329;DHT22;658;48.820;9.354;2023-04-25T11:10:40;23.00;43.70
1329;DHT22;658;48.820;9.354;2023-04-25T11:14:40;23.00;43.90
1329;DHT22;658;48.820;9.354;2023-04-25T11:18:42;23.00;43.80
1329;DHT22;658;48.820;9.354;2023-04-25T11:22:45;23.00;43.80
1329;DHT22;658;48.820;9.354;2023-04-25T11:26:48;23.00;43.70
1329;DHT22;658;48.820;9.354;2023-04-25T11:30:52;23.10;43.70
1329;DHT22;658;48.820;9.354;2023-04-25T11:34:55;23.10;43.60
1329;DHT22;658;48.820;9.354;2023-04-25T11:38:56;23.10;43.60
1329;DHT22;658;48.820;9.354;2023-04-25T11:43:02;23.10;43.50
1329;DHT22;658;48.820;9.354;2023-04-25T11:47:05;23.20;43.60
1329;DHT22;658;48.820;9.354;2023-04-25T11:51:06;23.20;43.50
1329;DHT22;658;48.820;9.354;2023-04-25T11:55:16;23.20;43.50
1329;DHT22;658;48.820;9.354;2023-04-25T11:59:23;23.30;43.50
1329;DHT22;658;48.820;9.354;2023-04-25T12:03:24;23.30;43.20
1329;DHT22;658;48.820;9.354;2023-04-25T12:07:30;23.30;43.00
1329;DHT22;658;48.820;9.354;2023-04-25T12:11:39;23.40;43.10
1329;DHT22;658;48.820;9.354;2023-04-25T12:15:40;23.30;42.90
1329;DHT22;658;48.820;9.354;2023-04-25T12:19:41;23.30;43.10
1329;DHT22;658;48.820;9.354;2023-04-25T12:23:44;23.40;43.20
1329;DHT22;658;48.820;9.354;2023-04-25T12:27:44;23.40;43.10
1329;DHT22;658;48.820;9.354;2023-04-25T12:31:45;23.40;43.10
1329;DHT22;658;48.820;9.354;2023-04-25T12:35:48;23.40;43.10
1329;DHT22;658;48.820;9.354;2023-04-25T12:39:48;23.40;43.10
1329;DHT22;658;48.820;9.354;2023-04-25T12:43:51;23.50;43.20
1329;DHT22;658;48.820;9.354;2023-04-25T12:47:52;23.50;43.20
1329;DHT22;658;48.820;9.354;2023-04-25T12:51:52;23.50;43.10
1329;DHT22;658;48.820;9.354;2023-04-25T12:55:53;23.50;43.20
1329;DHT22;658;48.820;9.354;2023-04-25T12:59:56;23.50;43.10
1329;DHT22;658;48.820;9.354;2023-04-25T13:03:59;23.50;43.10
1329;DHT22;658;48.820;9.354;2023-04-25T13:08:00;23.60;43.10
1329;DHT22;658;48.820;9.354;2023-04-25T13:12:00;23.60;43.10
1329;DHT22;658;48.820;9.354;2023-04-25T13:16:05;23.70;42.80
1329;DHT22;658;48.820;9.354;2023-04-25T13:20:06;23.80;42.80
1329;DHT22;658;48.820;9.354;2023-04-25T13:24:09;23.80;42.60
1329;DHT22;658;48.820;9.354;2023-04-25T13:28:09;23.80;42.70
1329;DHT22;658;48.820;9.354;2023-04-25T13:32:10;23.80;42.60
1329;DHT22;658;48.820;9.354;2023-04-25T13:36:11;23.90;42.70
1329;DHT22;658;48.820;9.354;2023-04-25T13:40:11;23.90;42.70
1329;DHT22;658;48.820;9.354;2023-04-25T13:44:12;23.90;42.70
1329;DHT22;658;48.820;9.354;2023-04-25T13:48:13;23.90;42.70
1329;DHT22;658;48.820;9.354;2023-04-25T13:52:16;23.90;42.70
1329;DHT22;658;48.820;9.354;2023-04-25T13:56:18;23.90;42.80
1329;DHT22;658;48.820;9.354;2023-04-25T14:00:20;23.90;42.50
1329;DHT22;658;48.820;9.354;2023-04-25T14:04:21;23.90;42.70
1329;DHT22;658;48.820;9.354;2023-04-25T14:08:22;23.90;42.80
1329;DHT22;658;48.820;9.354;2023-04-25T14:12:22;23.90;43.00
1329;DHT22;658;48.820;9.354;2023-04-25T14:16:23;23.90;42.90
1329;DHT22;658;48.820;9.354;2023-04-25T14:20:24;23.90;42.80
1329;DHT22;658;48.820;9.354;2023-04-25T14:24:24;23.90;42.70
1329;DHT22;658;48.820;9.354;2023-04-25T14:28:27;24.00;42.70
1329;DHT22;658;48.820;9.354;2023-04-25T14:32:29;23.90;42.60
1329;DHT22;658;48.820;9.354;2023-04-25T14:36:33;24.00;42.80
1329;DHT22;658;48.820;9.354;2023-04-25T14:40:36;24.10;42.70
1329;DHT22;658;48.820;9.354;2023-04-25T14:44:38;24.10;42.70
1329;DHT22;658;48.820;9.354;2023-04-25T14:48:39;24.10;42.60
1329;DHT22;658;48.820;9.354;2023-04-25T14:52:39;24.10;42.60
1329;DHT22;658;48.820;9.354;2023-04-25T14:56:40;24.10;42.60
1329;DHT22;658;48.820;9.354;2023-04-25T15:00:41;24.10;42.60
1329;DHT22;658;48.820;9.354;2023-04-25T15:04:41;24.10;42.50
1329;DHT22;658;48.820;9.354;2023-04-25T15:08:44;24.20;42.60
1329;DHT22;658;48.820;9.354;2023-04-25T15:12:45;24.20;42.60
1329;DHT22;658;48.820;9.354;2023-04-25T15:16:48;24.20;42.50
1329;DHT22;658;48.820;9.354;2023-04-25T15:20:50;24.20;42.50
1329;DHT22;658;48.820;9.354;2023-04-25T15:24:54;24.20;42.60
1329;DHT22;658;48.820;9.354;2023-04-25T15:28:56;24.30;42.60
1329;DHT22;658;48.820;9.354;2023-04-25T15:32:57;24.30;42.50
1329;DHT22;658;48.820;9.354;2023-04-25T15:36:58;24.30;42.60
1329;DHT22;658;48.820;9.354;2023-04-25T15:40:58;24.30;42.60
1329;DHT22;658;48.820;9.354;2023-04-25T15:44:59;24.30;42.60
1329;DHT22;658;48.820;9.354;2023-04-25T15:49:00;24.20;42.40
1329;DHT22;658;48.820;9.354;2023-04-25T15:53:03;24.20;42.40
1329;DHT22;658;48.820;9.354;2023-04-25T15:57:06;24.20;42.30
1329;DHT22;658;48.820;9.354;2023-04-25T16:01:10;24.10;42.30
1329;DHT22;658;48.820;9.354;2023-04-25T16:05:16;24.10;42.30
1329;DHT22;658;48.820;9.354;2023-04-25T16:09:20;24.10;42.30
1329;DHT22;658;48.820;9.354;2023-04-25T16:13:21;24.00;42.20
1329;DHT22;658;48.820;9.354;2023-04-25T16:17:26;24.00;42.20
1329;DHT22;658;48.820;9.354;2023-04-25T16:21:36;24.00;42.30
1329;DHT22;658;48.820;9.354;2023-04-25T16:25:38;23.90;42.20
1329;DHT22;658;48.820;9.354;2023-04-25T16:29:42;23.90;42.30
1329;DHT22;658;48.820;9.354;2023-04-25T16:33:43;23.90;42.20
1329;DHT22;658;48.820;9.354;2023-04-25T16:37:43;23.90;42.30
1329;DHT22;658;48.820;9.354;2023-04-25T16:41:44;23.80;42.20
1329;DHT22;658;48.820;9.354;2023-04-25T16:45:47;23.80;42.30
1329;DHT22;658;48.820;9.354;2023-04-25T16:49:50;23.80;42.30
1329;DHT22;658;48.820;9.354;2023-04-25T16:53:50;23.80;42.30
1329;DHT22;658;48.820;9.354;2023-04-25T16:57:51;23.70;42.30
1329;DHT22;658;48.820;9.354;2023-04-25T17:01:54;23.70;42.30
1329;DHT22;658;48.820;9.354;2023-04-25T17:05:55;23.70;42.20
1329;DHT22;658;48.820;9.354;2023-04-25T17:10:00;23.60;42.20
1329;DHT22;658;48.820;9.354;2023-04-25T17:14:01;23.60;42.20
1329;DHT22;658;48.820;9.354;2023-04-25T17:18:02;23.60;42.30
1329;DHT22;658;48.820;9.354;2023-04-25T17:22:03;23.50;42.20
1329;DHT22;658;48.820;9.354;2023-04-25T17:26:06;23.50;42.20
1329;DHT22;658;48.820;9.354;2023-04-25T17:30:07;23.50;42.30
1329;DHT22;658;48.820;9.354;2023-04-25T17:34:08;23.50;42.30
1329;DHT22;658;48.820;9.354;2023-04-25T17:38:11;23.50;42.30
1329;DHT22;658;48.820;9.354;2023-04-25T17:42:14;23.40;42.90
1329;DHT22;658;48.820;9.354;2023-04-25T17:46:14;23.40;42.50
1329;DHT22;658;48.820;9.354;2023-04-25T17:50:17;23.40;42.50
1329;DHT22;658;48.820;9.354;2023-04-25T17:54:18;23.30;42.40
1329;DHT22;658;48.820;9.354;2023-04-25T17:58:22;23.30;42.60
1329;DHT22;658;48.820;9.354;2023-04-25T18:02:25;23.30;42.60
1329;DHT22;658;48.820;9.354;2023-04-25T18:06:28;23.30;42.70
1329;DHT22;658;48.820;9.354;2023-04-25T18:10:29;23.30;42.70
1329;DHT22;658;48.820;9.354;2023-04-25T18:14:29;23.30;43.30
1329;DHT22;658;48.820;9.354;2023-04-25T18:18:30;23.30;43.40
1329;DHT22;658;48.820;9.354;2023-04-25T18:22:33;23.30;43.40
1329;DHT22;658;48.820;9.354;2023-04-25T18:26:35;23.40;43.60
1329;DHT22;658;48.820;9.354;2023-04-25T18:30:35;23.40;43.60
1329;DHT22;658;48.820;9.354;2023-04-25T18:34:37;23.40;43.40
1329;DHT22;658;48.820;9.354;2023-04-25T18:38:40;23.40;43.60
1329;DHT22;658;48.820;9.354;2023-04-25T18:42:41;23.40;43.50
1329;DHT22;658;48.820;9.354;2023-04-25T18:46:42;23.40;43.50
1329;DHT22;658;48.820;9.354;2023-04-25T18:50:46;23.40;43.40
1329;DHT22;658;48.820;9.354;2023-04-25T18:54:47;23.40;43.50
1329;DHT22;658;48.820;9.354;2023-04-25T18:58:51;23.40;43.50
1329;DHT22;658;48.820;9.354;2023-04-25T19:02:52;23.40;43.50
1329;DHT22;658;48.820;9.354;2023-04-25T19:06:55;23.40;43.60
1329;DHT22;658;48.820;9.354;2023-04-25T19:10:56;23.40;43.50
1329;DHT22;658;48.820;9.354;2023-04-25T19:14:59;23.40;43.60
1329;DHT22;658;48.820;9.354;2023-04-25T19:18:59;23.40;43.50
1329;DHT22;658;48.820;9.354;2023-04-25T19:23:01;23.40;43.70
1329;DHT22;658;48.820;9.354;2023-04-25T19:27:01;23.40;43.60
1329;DHT22;658;48.820;9.354;2023-04-25T19:31:02;23.40;43.70
1329;DHT22;658;48.820;9.354;2023-04-25T19:35:03;23.30;43.60
1329;DHT22;658;48.820;9.354;2023-04-25T19:39:06;23.30;43.60
1329;DHT22;658;48.820;9.354;2023-04-25T19:43:07;23.30;43.70
1329;DHT22;658;48.820;9.354;2023-04-25T19:47:08;23.30;43.60
1329;DHT22;658;48.820;9.354;2023-04-25T19:51:12;23.20;43.60
1329;DHT22;658;48.820;9.354;2023-04-25T19:55:15;23.20;43.70
1329;DHT22;658;48.820;9.354;2023-04-25T19:59:17;23.20;43.80
1329;DHT22;658;48.820;9.354;2023-04-25T20:03:18;23.10;43.80
1329;DHT22;658;48.820;9.354;2023-04-25T20:07:19;23.20;43.90
1329;DHT22;658;48.820;9.354;2023-04-25T20:11:21;23.10;43.80
1329;DHT22;658;48.820;9.354;2023-04-25T20:15:26;23.20;43.90
1329;DHT22;658;48.820;9.354;2023-04-25T20:19:44;23.20;44.00
1329;DHT22;658;48.820;9.354;2023-04-25T20:23:45;23.20;43.90
1329;DHT22;658;48.820;9.354;2023-04-25T20:27:46;23.20;44.00
1329;DHT22;658;48.820;9.354;2023-04-25T20:31:49;23.20;44.00
1329;DHT22;658;48.820;9.354;2023-04-25T20:35:52;23.20;44.00
1329;DHT22;658;48.820;9.354;2023-04-25T20:39:55;23.20;44.00
1329;DHT22;658;48.820;9.354;2023-04-25T20:43:58;23.20;44.00
1329;DHT22;658;48.820;9.354;2023-04-25T20:48:00;23.20;44.00
1329;DHT22;658;48.820;9.354;2023-04-25T20:52:01;23.20;44.00
1329;DHT22;658;48.820;9.354;2023-04-25T20:56:02;23.20;44.00
1329;DHT22;658;48.820;9.354;2023-04-25T21:00:04;23.20;43.90
1329;DHT22;658;48.820;9.354;2023-04-25T21:04:17;23.20;43.90
1329;DHT22;658;48.820;9.354;2023-04-25T21:08:20;23.20;43.90
1329;DHT22;658;48.820;9.354;2023-04-25T21:12:25;23.10;43.80
1329;DHT22;658;48.820;9.354;2023-04-25T21:16:28;23.10;43.90
1329;DHT22;658;48.820;9.354;2023-04-25T21:20:32;23.10;44.00
1329;DHT22;658;48.820;9.354;2023-04-25T21:24:32;23.00;44.00
1329;DHT22;658;48.820;9.354;2023-04-25T21:28:33;23.00;44.00
1329;DHT22;658;48.820;9.354;2023-04-25T21:32:33;22.90;44.00
1329;DHT22;658;48.820;9.354;2023-04-25T21:36:35;22.90;44.00
1329;DHT22;658;48.820;9.354;2023-04-25T21:40:39;22.80;44.00
1329;DHT22;658;48.820;9.354;2023-04-25T21:44:42;22.80;44.10
1329;DHT22;658;48.820;9.354;2023-04-25T21:48:45;22.80;44.10
1329;DHT22;658;48.820;9.354;2023-04-25T21:52:48;22.80;44.10
1329;DHT22;658;48.820;9.354;2023-04-25T21:56:53;22.70;44.00
1329;DHT22;658;48.820;9.354;2023-04-25T22:00:57;22.70;44.10
1329;DHT22;658;48.820;9.354;2023-04-25T22:04:58;22.70;44.20
1329;DHT22;658;48.820;9.354;2023-04-25T22:08:59;22.70;44.20
1329;DHT22;658;48.820;9.354;2023-04-25T22:13:02;22.60;44.20
1329;DHT22;658;48.820;9.354;2023-04-25T22:17:03;22.60;44.20
1329;DHT22;658;48.820;9.354;2023-04-25T22:21:06;22.60;44.30
1329;DHT22;658;48.820;9.354;2023-04-25T22:25:09;22.50;44.20
1329;DHT22;658;48.820;9.354;2023-04-25T22:29:11;22.50;44.30
1329;DHT22;658;48.820;9.354;2023-04-25T22:33:12;22.50;44.30
1329;DHT22;658;48.820;9.354;2023-04-25T22:37:15;22.40;44.30
1329;DHT22;658;48.820;9.354;2023-04-25T22:41:16;22.40;44.30
1329;DHT22;658;48.820;9.354;2023-04-25T22:45:18;22.40;44.40
1329;DHT22;658;48.820;9.354;2023-04-25T22:49:19;22.40;44.40
1329;DHT22;658;48.820;9.354;2023-04-25T22:53:20;22.40;44.40
1329;DHT22;658;48.820;9.354;2023-04-25T22:57:20;22.30;44.30
1329;DHT22;658;48.820;9.354;2023-04-25T23:01:25;22.30;44.40
1329;DHT22;658;48.820;9.354;2023-04-25T23:05:28;22.30;44.40
1329;DHT22;658;48.820;9.354;2023-04-25T23:09:30;22.30;44.40
1329;DHT22;658;48.820;9.354;2023-04-25T23:13:33;22.30;44.50
1329;DHT22;658;48.820;9.354;2023-04-25T23:17:42;22.30;44.50
1329;DHT22;658;48.820;9.354;2023-04-25T23:21:42;22.20;44.40
1329;DHT22;658;48.820;9.354;2023-04-25T23:25:43;22.20;44.40
1329;DHT22;658;48.820;9.354;2023-04-25T23:29:56;22.20;44.40
1329;DHT22;658;48.820;9.354;2023-04-25T23:33:57;22.20;44.40
1329;DHT22;658;48.820;9.354;2023-04-25T23:38:00;22.20;44.40
1329;DHT22;658;48.820;9.354;2023-04-25T23:42:00;22.10;44.40
1329;DHT22;658;48.820;9.354;2023-04-25T23:46:01;22.10;44.40
1329;DHT22;658;48.820;9.354;2023-04-25T23:50:02;22.10;44.40
1329;DHT22;658;48.820;9.354;2023-04-25T23:54:02;22.20;44.50
1329;DHT22;658;48.820;9.354;2023-04-25T23:58:03;22.10;44.40
